Observation data for Northwest San Angelo on 11/19/2019      Previous  Date  Next       Current Mesonet Observations  Soil Data  Daily Summary Page  Observations in Plain Language
KASU 190600Z 06002KT 09/M00 A2996 RMK A01 T00911003  RH  052%=      5-min Rain = 0
KASU 190605Z 06001KT 08/M01 A2996 RMK A01 T00821009  RH  053%=      5-min Rain = 0
KASU 190610Z 06000KT 08/M00 A2996 RMK A01 T00821004  RH  055%=      5-min Rain = 0
KASU 190615Z 10000KT 08/M00 A2996 RMK A01 T00831001  RH  056%=      5-min Rain = 0
KASU 190620Z 10000KT 08/00 A2996 RMK A01 T00820000  RH  057%=      5-min Rain = 0
KASU 190625Z 08000KT 08/00 A2996 RMK A01 T00810002  RH  058%=      5-min Rain = 0
KASU 190630Z 00000KT 07/M01 A2996 RMK A01 T00731005  RH  059%=      5-min Rain = 0
KASU 190635Z 00000KT 07/M01 A2996 RMK A01 T00651012  RH  058%=      5-min Rain = 0
KASU 190640Z 00000KT 06/M01 A2997 RMK A01 T00601014  RH  060%=      5-min Rain = 0
KASU 190645Z 00000KT 06/M01 A2997 RMK A01 T00581013  RH  061%=      5-min Rain = 0
KASU 190650Z 00000KT 06/M01 A2997 RMK A01 T00601009  RH  062%=      5-min Rain = 0
KASU 190655Z 00000KT 06/M01 A2997 RMK A01 T00571011  RH  062%=      5-min Rain = 0
KASU 190700Z 00000KT 06/M01 A2997 RMK A01 T00561012  RH  062%=      5-min Rain = 0
KASU 190705Z 00000KT 05/M01 A2997 RMK A01 T00521014  RH  063%=      5-min Rain = 0
KASU 190710Z 00000KT 05/M01 A2997 RMK A01 T00511013  RH  064%=      5-min Rain = 0
KASU 190715Z 33000KT 05/M01 A2997 RMK A01 T00491013  RH  065%=      5-min Rain = 0
KASU 190720Z 32001KT 05/M02 A2997 RMK A01 T00461015  RH  065%=      5-min Rain = 0
KASU 190725Z 31001KT 05/M01 A2997 RMK A01 T00481012  RH  066%=      5-min Rain = 0
KASU 190730Z 31001KT 05/M01 A2997 RMK A01 T00491011  RH  066%=      5-min Rain = 0
KASU 190735Z 33003KT 05/M01 A2997 RMK A01 T00481011  RH  066%=      5-min Rain = 0
KASU 190740Z 33004KT 05/M01 A2997 RMK A01 T00461013  RH  066%=      5-min Rain = 0
KASU 190745Z 33005KT 04/M02 A2997 RMK A01 T00431015  RH  067%=      5-min Rain = 0
KASU 190750Z 33005KT 04/M01 A2997 RMK A01 T00411014  RH  068%=      5-min Rain = 0
KASU 190755Z 33005KT 04/M01 A2997 RMK A01 T00401013  RH  069%=      5-min Rain = 0
KASU 190800Z 33004KT 04/M01 A2997 RMK A01 T00401013  RH  069%=      5-min Rain = 0
KASU 190805Z 32003KT 04/M01 A2998 RMK A01 T00401012  RH  069%=      5-min Rain = 0
KASU 190810Z 32003KT 04/M01 A2998 RMK A01 T00411013  RH  069%=      5-min Rain = 0
KASU 190815Z 31004KT 04/M01 A2998 RMK A01 T00421013  RH  068%=      5-min Rain = 0
KASU 190820Z 31004KT 04/M02 A2998 RMK A01 T00421015  RH  067%=      5-min Rain = 0
KASU 190825Z 31004KT 04/M02 A2998 RMK A01 T00421015  RH  067%=      5-min Rain = 0
KASU 190830Z 32004KT 04/M01 A2997 RMK A01 T00421014  RH  067%=      5-min Rain = 0
KASU 190835Z 32005KT 04/M01 A2997 RMK A01 T00431012  RH  068%=      5-min Rain = 0
KASU 190840Z 33005KT 04/M01 A2997 RMK A01 T00421013  RH  068%=      5-min Rain = 0
KASU 190845Z 33005KT 04/M02 A2997 RMK A01 T00381015  RH  069%=      5-min Rain = 0
KASU 190850Z 33005KT 04/M02 A2997 RMK A01 T00351016  RH  070%=      5-min Rain = 0
KASU 190855Z 33004KT 04/M02 A2997 RMK A01 T00351016  RH  070%=      5-min Rain = 0
KASU 190900Z 34004KT 04/M02 A2997 RMK A01 T00351016  RH  070%=      5-min Rain = 0
KASU 190905Z 34004KT 03/M02 A2997 RMK A01 T00341016  RH  070%=      5-min Rain = 0
KASU 190910Z 34004KT 03/M02 A2997 RMK A01 T00341016  RH  070%=      5-min Rain = 0
KASU 190915Z 35004KT 04/M01 A2997 RMK A01 T00351014  RH  071%=      5-min Rain = 0
KASU 190920Z 35003KT 04/M01 A2997 RMK A01 T00351014  RH  071%=      5-min Rain = 0
KASU 190925Z 34004KT 04/M01 A2997 RMK A01 T00361012  RH  071%=      5-min Rain = 0
KASU 190930Z 32002KT 04/M01 A2997 RMK A01 T00381013  RH  070%=      5-min Rain = 0
KASU 190935Z 30002KT 04/M02 A2997 RMK A01 T00371015  RH  069%=      5-min Rain = 0
KASU 190940Z 31003KT 04/M02 A2997 RMK A01 T00371016  RH  069%=      5-min Rain = 0
KASU 190945Z 31003KT 04/M02 A2997 RMK A01 T00371015  RH  070%=      5-min Rain = 0
KASU 190950Z 31003KT 04/M02 A2997 RMK A01 T00361016  RH  069%=      5-min Rain = 0
KASU 190955Z 32004KT 04/M01 A2997 RMK A01 T00381014  RH  069%=      5-min Rain = 0
KASU 191000Z 31004KT 04/M02 A2997 RMK A01 T00371015  RH  069%=      5-min Rain = 0
KASU 191005Z 31004KT 03/M02 A2997 RMK A01 T00341017  RH  070%=      5-min Rain = 0
KASU 191010Z 31004KT 04/M02 A2997 RMK A01 T00351015  RH  070%=      5-min Rain = 0
KASU 191015Z 30003KT 04/M01 A2997 RMK A01 T00381013  RH  070%=      5-min Rain = 0
KASU 191020Z 30003KT 04/M02 A2997 RMK A01 T00371015  RH  069%=      5-min Rain = 0
KASU 191025Z 30003KT 04/M02 A2997 RMK A01 T00361016  RH  069%=      5-min Rain = 0
KASU 191030Z 29003KT 04/M02 A2997 RMK A01 T00361015  RH  070%=      5-min Rain = 0
KASU 191035Z 29003KT 04/M01 A2997 RMK A01 T00361014  RH  070%=      5-min Rain = 0
KASU 191040Z 29003KT 04/M01 A2997 RMK A01 T00371013  RH  070%=      5-min Rain = 0
KASU 191045Z 30003KT 04/M01 A2997 RMK A01 T00371013  RH  071%=      5-min Rain = 0
KASU 191050Z 31004KT 04/M01 A2997 RMK A01 T00361013  RH  071%=      5-min Rain = 0
KASU 191055Z 30004KT 03/M01 A2997 RMK A01 T00341014  RH  071%=      5-min Rain = 0
KASU 191100Z 30003KT 04/M01 A2997 RMK A01 T00351013  RH  072%=      5-min Rain = 0
KASU 191105Z 29003KT 04/M01 A2998 RMK A01 T00361012  RH  072%=      5-min Rain = 0
KASU 191110Z 29003KT 04/M01 A2998 RMK A01 T00371011  RH  072%=      5-min Rain = 0
KASU 191115Z 28004KT 04/M01 A2998 RMK A01 T00361011  RH  072%=      5-min Rain = 0
KASU 191120Z 28003KT 04/M01 A2998 RMK A01 T00371010  RH  072%=      5-min Rain = 0
KASU 191125Z 29003KT 04/M01 A2998 RMK A01 T00371009  RH  072%=      5-min Rain = 0
KASU 191130Z 29003KT 04/M01 A2998 RMK A01 T00381009  RH  072%=      5-min Rain = 0
KASU 191135Z 29003KT 04/M01 A2998 RMK A01 T00381009  RH  072%=      5-min Rain = 0
KASU 191140Z 30003KT 04/M01 A2998 RMK A01 T00381009  RH  072%=      5-min Rain = 0
KASU 191145Z 30004KT 04/M01 A2998 RMK A01 T00371010  RH  072%=      5-min Rain = 0
KASU 191150Z 31003KT 04/M01 A2998 RMK A01 T00361011  RH  072%=      5-min Rain = 0
KASU 191155Z 32005KT 03/M01 A2998 RMK A01 T00331014  RH  072%=      5-min Rain = 0
KASU 191200Z 32005KT 03/M01 A2998 RMK A01 T00301014  RH  073%=      5-min Rain = 0
KASU 191205Z 31005KT 03/M01 A2998 RMK A01 T00291014  RH  074%=      5-min Rain = 0
KASU 191210Z 31004KT 03/M01 A2998 RMK A01 T00291013  RH  075%=      5-min Rain = 0
KASU 191215Z 31005KT 03/M01 A2998 RMK A01 T00291013  RH  075%=      5-min Rain = 0
KASU 191220Z 32005KT 03/M01 A2998 RMK A01 T00281013  RH  075%=      5-min Rain = 0
KASU 191225Z 31005KT 03/M01 A2998 RMK A01 T00281012  RH  075%=      5-min Rain = 0
KASU 191230Z 31004KT 03/M01 A2998 RMK A01 T00281012  RH  076%=      5-min Rain = 0
KASU 191235Z 31004KT 03/M01 A2998 RMK A01 T00291011  RH  076%=      5-min Rain = 0
KASU 191240Z 31004KT 03/M01 A2998 RMK A01 T00291011  RH  076%=      5-min Rain = 0
KASU 191245Z 32005KT 03/M01 A2998 RMK A01 T00281012  RH  076%=      5-min Rain = 0
KASU 191250Z 31004KT 03/M01 A2998 RMK A01 T00281011  RH  076%=      5-min Rain = 0
KASU 191255Z 30003KT 03/M01 A2999 RMK A01 T00301010  RH  076%=      5-min Rain = 0
KASU 191300Z 31003KT 03/M01 A2999 RMK A01 T00321008  RH  076%=      5-min Rain = 0
KASU 191305Z 30003KT 03/M01 A2999 RMK A01 T00311010  RH  075%=      5-min Rain = 0
KASU 191310Z 31004KT 03/M01 A2999 RMK A01 T00291012  RH  075%=      5-min Rain = 0
KASU 191315Z 30003KT 03/M01 A2999 RMK A01 T00281013  RH  075%=      5-min Rain = 0
KASU 191320Z 31004KT 03/M01 A2999 RMK A01 T00281012  RH  076%=      5-min Rain = 0
KASU 191325Z 31004KT 03/M01 A2999 RMK A01 T00291011  RH  076%=      5-min Rain = 0
KASU 191330Z 31004KT 03/M01 A2999 RMK A01 T00281012  RH  076%=      5-min Rain = 0
KASU 191335Z 31004KT 03/M01 A2999 RMK A01 T00291011  RH  076%=      5-min Rain = 0
KASU 191340Z 31004KT 03/M01 A2999 RMK A01 T00301010  RH  076%=      5-min Rain = 0
KASU 191345Z 31004KT 03/M01 A2999 RMK A01 T00321008  RH  076%=      5-min Rain = 0
KASU 191350Z 31004KT 04/M01 A2999 RMK A01 T00351005  RH  076%=      5-min Rain = 0
KASU 191355Z 31004KT 04/M00 A2999 RMK A01 T00411001  RH  075%=      5-min Rain = 0
KASU 191400Z 31004KT 05/00 A2999 RMK A01 T00450002  RH  074%=      5-min Rain = 0
KASU 191405Z 30003KT 05/00 A2999 RMK A01 T00500004  RH  073%=      5-min Rain = 0
KASU 191410Z 30002KT 06/01 A2999 RMK A01 T00560008  RH  072%=      5-min Rain = 0
KASU 191415Z 30002KT 06/01 A30 RMK A01 T00630011  RH  070%=      5-min Rain = 0
KASU 191420Z 30002KT 07/01 A30 RMK A01 T00680013  RH  069%=      5-min Rain = 0
KASU 191425Z 30002KT 07/01 A30 RMK A01 T00730014  RH  067%=      5-min Rain = 0
KASU 191430Z 29002KT 08/02 A30 RMK A01 T00770015  RH  066%=      5-min Rain = 0
KASU 191435Z 29002KT 08/02 A30 RMK A01 T00810016  RH  064%=      5-min Rain = 0
KASU 191440Z 30002KT 09/02 A30 RMK A01 T00870019  RH  063%=      5-min Rain = 0
KASU 191445Z 30002KT 09/02 A30 RMK A01 T00940022  RH  061%=      5-min Rain = 0
KASU 191450Z 28001KT 10/02 A30 RMK A01 T01000023  RH  060%=      5-min Rain = 0
KASU 191455Z 28001KT 11/03 A30 RMK A01 T01060026  RH  058%=      5-min Rain = 0
KASU 191500Z 28001KT 11/03 A30 RMK A01 T01120027  RH  057%=      5-min Rain = 0
KASU 191505Z 29001KT 12/03 A30 RMK A01 T01180030  RH  056%=      5-min Rain = 0
KASU 191510Z 28001KT 12/03 A30 RMK A01 T01230031  RH  054%=      5-min Rain = 0
KASU 191515Z 26001KT 13/03 A30 RMK A01 T01280034  RH  054%=      5-min Rain = 0
KASU 191520Z 24001KT 14/04 A30 RMK A01 T01350039  RH  053%=      5-min Rain = 0
KASU 191525Z 23002KT 14/04 A30 RMK A01 T01410042  RH  052%=      5-min Rain = 0
KASU 191530Z 22004KT 15/05 A30 RMK A01 T01450046  RH  052%=      5-min Rain = 0
KASU 191535Z 21004KT 15/05 A30 RMK A01 T01500046  RH  051%=      5-min Rain = 0
KASU 191540Z 21003KT 15/05 A30 RMK A01 T01510045  RH  050%=      5-min Rain = 0
KASU 191545Z 20003KT 15/05 A30 RMK A01 T01520046  RH  050%=      5-min Rain = 0
KASU 191550Z 20003KT 16/05 A30 RMK A01 T01560047  RH  049%=      5-min Rain = 0
KASU 191555Z 18002KT 16/05 A30 RMK A01 T01600048  RH  049%=      5-min Rain = 0
KASU 191600Z 18004KT 17/05 A30 RMK A01 T01680051  RH  047%=      5-min Rain = 0
KASU 191605Z 17004KT 17/05 A30 RMK A01 T01740053  RH  046%=      5-min Rain = 0
KASU 191610Z 18004KT 18/06 A30 RMK A01 T01790055  RH  045%=      5-min Rain = 0
KASU 191615Z 19005KT 18/06 A30 RMK A01 T01830058  RH  045%=      5-min Rain = 0
KASU 191620Z 18006KT 19/06 A30 RMK A01 T01850056  RH  044%=      5-min Rain = 0
KASU 191625Z 16005KT 19/06 A2999 RMK A01 T01870057  RH  043%=      5-min Rain = 0
KASU 191630Z 14005KT 19/06 A2999 RMK A01 T01890056  RH  043%=      5-min Rain = 0
KASU 191635Z 15005KT 19/06 A2999 RMK A01 T01920056  RH  042%=      5-min Rain = 0
KASU 191640Z 15005KT 19/05 A2999 RMK A01 T01930054  RH  041%=      5-min Rain = 0
KASU 191645Z 14005KT 19/05 A2999 RMK A01 T01910053  RH  041%=      5-min Rain = 0
KASU 191650Z 14006KT 20/05 A2999 RMK A01 T01950054  RH  041%=      5-min Rain = 0
KASU 191655Z 14006KT 20/05 A2999 RMK A01 T01990054  RH  039%=      5-min Rain = 0
KASU 191700Z 15005KT 20/06 A2999 RMK A01 T02010056  RH  039%=      5-min Rain = 0
KASU 191705Z 16005KT 21/06 A2999 RMK A01 T02070056  RH  038%=      5-min Rain = 0
KASU 191710Z 14004KT 21/06 A2999 RMK A01 T02060057  RH  038%=      5-min Rain = 0
KASU 191715Z 17005KT 22/06 A2998 RMK A01 T02160058  RH  037%=      5-min Rain = 0
KASU 191720Z 19006KT 22/06 A2998 RMK A01 T02150058  RH  037%=      5-min Rain = 0
KASU 191725Z 18006KT 22/06 A2998 RMK A01 T02200058  RH  036%=      5-min Rain = 0
KASU 191730Z 17006KT 22/06 A2997 RMK A01 T02200058  RH  036%=      5-min Rain = 0
KASU 191735Z 17007KT 23/06 A2997 RMK A01 T02290059  RH  034%=      5-min Rain = 0
KASU 191740Z 18008KT 23/06 A2997 RMK A01 T02290058  RH  034%=      5-min Rain = 0
KASU 191745Z 18009KT 23/06 A2997 RMK A01 T02300057  RH  033%=      5-min Rain = 0
KASU 191750Z 20009KT 23/06 A2996 RMK A01 T02320057  RH  033%=      5-min Rain = 0
KASU 191755Z 19008KT 23/06 A2996 RMK A01 T02330057  RH  033%=      5-min Rain = 0
KASU 191800Z 19009G16KT 24/06 A2995 RMK A01 T02420057  RH  031%=      5-min Rain = 0
KASU 191805Z 19008KT 25/06 A2995 RMK A01 T02480056  RH  030%=      5-min Rain = 0
KASU 191810Z 19009KT 25/05 A2995 RMK A01 T02500054  RH  029%=      5-min Rain = 0
KASU 191815Z 19012G17KT 25/05 A2995 RMK A01 T02510052  RH  028%=      5-min Rain = 0
KASU 191820Z 19012G17KT 25/05 A2994 RMK A01 T02520050  RH  028%=      5-min Rain = 0
KASU 191825Z 19014G20KT 25/05 A2994 RMK A01 T02510047  RH  027%=      5-min Rain = 0
KASU 191830Z 18013KT 25/05 A2994 RMK A01 T02510050  RH  028%=      5-min Rain = 0
KASU 191835Z 17012G17KT 25/05 A2993 RMK A01 T02540051  RH  028%=      5-min Rain = 0
KASU 191840Z 18012G18KT 26/05 A2993 RMK A01 T02570052  RH  027%=      5-min Rain = 0
KASU 191845Z 17010G17KT 26/05 A2993 RMK A01 T02550052  RH  028%=      5-min Rain = 0
KASU 191850Z 17011G17KT 26/05 A2992 RMK A01 T02590052  RH  027%=      5-min Rain = 0
KASU 191855Z 17013G18KT 26/05 A2992 RMK A01 T02590051  RH  027%=      5-min Rain = 0
KASU 191900Z 17013G19KT 26/05 A2992 RMK A01 T02600051  RH  027%=      5-min Rain = 0
KASU 191905Z 18014G19KT 26/05 A2992 RMK A01 T02590052  RH  027%=      5-min Rain = 0
KASU 191910Z 17013G18KT 26/05 A2991 RMK A01 T02610053  RH  027%=      5-min Rain = 0
KASU 191915Z 18014KT 26/05 A2991 RMK A01 T02620051  RH  026%=      5-min Rain = 0
KASU 191920Z 17013G18KT 27/05 A2991 RMK A01 T02660052  RH  026%=      5-min Rain = 0
KASU 191925Z 18015KT 26/05 A299 RMK A01 T02640051  RH  026%=      5-min Rain = 0
KASU 191930Z 17014G19KT 26/05 A299 RMK A01 T02630052  RH  026%=      5-min Rain = 0
KASU 191935Z 16011G18KT 26/05 A2989 RMK A01 T02620053  RH  027%=      5-min Rain = 0
KASU 191940Z 17012KT 26/05 A2989 RMK A01 T02640052  RH  026%=      5-min Rain = 0
KASU 191945Z 17012G18KT 27/05 A2989 RMK A01 T02660053  RH  026%=      5-min Rain = 0
KASU 191950Z 16010KT 27/05 A2989 RMK A01 T02690054  RH  026%=      5-min Rain = 0
KASU 191955Z 17010G17KT 27/06 A2988 RMK A01 T02690055  RH  026%=      5-min Rain = 0
KASU 192000Z 17010G15KT 27/06 A2988 RMK A01 T02680057  RH  027%=      5-min Rain = 0
KASU 192005Z 17010G17KT 27/06 A2988 RMK A01 T02720057  RH  026%=      5-min Rain = 0
KASU 192010Z 18011G18KT 27/06 A2988 RMK A01 T02700057  RH  026%=      5-min Rain = 0
KASU 192015Z 18013G18KT 27/05 A2988 RMK A01 T02690054  RH  026%=      5-min Rain = 0
KASU 192020Z 18012G18KT 27/06 A2987 RMK A01 T02700055  RH  026%=      5-min Rain = 0
KASU 192025Z 18014G19KT 27/05 A2987 RMK A01 T02710054  RH  026%=      5-min Rain = 0
KASU 192030Z 17013G20KT 27/05 A2987 RMK A01 T02680054  RH  026%=      5-min Rain = 0
KASU 192035Z 18013G19KT 27/06 A2987 RMK A01 T02680056  RH  027%=      5-min Rain = 0
KASU 192040Z 17011G17KT 27/06 A2987 RMK A01 T02730056  RH  026%=      5-min Rain = 0
KASU 192045Z 18012G18KT 28/06 A2987 RMK A01 T02750055  RH  025%=      5-min Rain = 0
KASU 192050Z 17012G19KT 27/05 A2987 RMK A01 T02700053  RH  026%=      5-min Rain = 0
KASU 192055Z 16012G17KT 27/05 A2986 RMK A01 T02710054  RH  026%=      5-min Rain = 0
KASU 192100Z 17012G17KT 27/05 A2986 RMK A01 T02700054  RH  026%=      5-min Rain = 0
KASU 192105Z 17014G19KT 27/05 A2986 RMK A01 T02690054  RH  026%=      5-min Rain = 0
KASU 192110Z 17012G17KT 27/05 A2986 RMK A01 T02690051  RH  025%=      5-min Rain = 0
KASU 192115Z 18012KT 27/05 A2986 RMK A01 T02720053  RH  025%=      5-min Rain = 0
KASU 192120Z 16012G21KT 27/05 A2986 RMK A01 T02700050  RH  025%=      5-min Rain = 0
KASU 192125Z 17011G16KT 27/05 A2986 RMK A01 T02710049  RH  025%=      5-min Rain = 0
KASU 192130Z 18013G18KT 27/05 A2986 RMK A01 T02700049  RH  025%=      5-min Rain = 0
KASU 192135Z 18012KT 27/05 A2986 RMK A01 T02710049  RH  025%=      5-min Rain = 0
KASU 192140Z 17012G18KT 27/05 A2985 RMK A01 T02710048  RH  025%=      5-min Rain = 0
KASU 192145Z 17012G17KT 27/05 A2985 RMK A01 T02700049  RH  025%=      5-min Rain = 0
KASU 192150Z 18013G18KT 27/05 A2985 RMK A01 T02690048  RH  025%=      5-min Rain = 0
KASU 192155Z 17011G18KT 27/05 A2985 RMK A01 T02700048  RH  025%=      5-min Rain = 0
KASU 192200Z 17012KT 27/05 A2985 RMK A01 T02690048  RH  025%=      5-min Rain = 0
KASU 192205Z 17012KT 27/05 A2985 RMK A01 T02670049  RH  025%=      5-min Rain = 0
KASU 192210Z 18014KT 27/05 A2985 RMK A01 T02660049  RH  025%=      5-min Rain = 0
KASU 192215Z 17012KT 27/05 A2985 RMK A01 T02660049  RH  025%=      5-min Rain = 0
KASU 192220Z 17011KT 27/05 A2985 RMK A01 T02650050  RH  026%=      5-min Rain = 0
KASU 192225Z 17011G18KT 26/05 A2985 RMK A01 T02640051  RH  026%=      5-min Rain = 0
KASU 192230Z 17010KT 26/05 A2985 RMK A01 T02620052  RH  027%=      5-min Rain = 0
KASU 192235Z 17012KT 26/05 A2985 RMK A01 T02570050  RH  027%=      5-min Rain = 0
KASU 192240Z 17011KT 25/05 A2985 RMK A01 T02520048  RH  027%=      5-min Rain = 0
KASU 192245Z 18012KT 25/05 A2985 RMK A01 T02490045  RH  027%=      5-min Rain = 0
KASU 192250Z 17011KT 25/05 A2985 RMK A01 T02500045  RH  027%=      5-min Rain = 0
KASU 192255Z 18012G17KT 25/05 A2985 RMK A01 T02480045  RH  027%=      5-min Rain = 0
KASU 192300Z 18009G14KT 25/05 A2985 RMK A01 T02470045  RH  028%=      5-min Rain = 0
KASU 192305Z 17009KT 25/05 A2985 RMK A01 T02460045  RH  028%=      5-min Rain = 0
KASU 192310Z 17008KT 24/05 A2985 RMK A01 T02440046  RH  028%=      5-min Rain = 0
KASU 192315Z 17007KT 24/05 A2985 RMK A01 T02400046  RH  029%=      5-min Rain = 0
KASU 192320Z 17007KT 24/05 A2985 RMK A01 T02370047  RH  030%=      5-min Rain = 0
KASU 192325Z 16006KT 23/05 A2985 RMK A01 T02330047  RH  030%=      5-min Rain = 0
KASU 192330Z 15005KT 23/05 A2985 RMK A01 T02280046  RH  031%=      5-min Rain = 0
KASU 192335Z 15006KT 22/05 A2985 RMK A01 T02200047  RH  033%=      5-min Rain = 0
KASU 192340Z 15006KT 21/05 A2985 RMK A01 T02130047  RH  034%=      5-min Rain = 0
KASU 192345Z 15006KT 21/05 A2985 RMK A01 T02100048  RH  035%=      5-min Rain = 0
KASU 192350Z 16006KT 21/05 A2985 RMK A01 T02060048  RH  036%=      5-min Rain = 0
KASU 192355Z 16005KT 20/05 A2985 RMK A01 T02030048  RH  037%=      5-min Rain = 0
KASU 200000Z 15005KT 20/05 A2985 RMK A01 T02000048  RH  038%=      5-min Rain = 0
KASU 200005Z 15006KT 20/05 A2985 RMK A01 T01970049  RH  039%=      5-min Rain = 0
KASU 200010Z 16006KT 20/05 A2986 RMK A01 T01960050  RH  039%=      5-min Rain = 0
KASU 200015Z 16006KT 20/05 A2986 RMK A01 T01970049  RH  039%=      5-min Rain = 0
KASU 200020Z 17006KT 20/05 A2986 RMK A01 T01960048  RH  039%=      5-min Rain = 0
KASU 200025Z 17006KT 20/05 A2986 RMK A01 T01980048  RH  038%=      5-min Rain = 0
KASU 200030Z 16006KT 20/05 A2986 RMK A01 T02000048  RH  038%=      5-min Rain = 0
KASU 200035Z 16006KT 20/05 A2986 RMK A01 T01980048  RH  038%=      5-min Rain = 0
KASU 200040Z 16006KT 20/05 A2987 RMK A01 T01960049  RH  039%=      5-min Rain = 0
KASU 200045Z 16006KT 20/05 A2987 RMK A01 T01950049  RH  039%=      5-min Rain = 0
KASU 200050Z 16006KT 19/05 A2987 RMK A01 T01930049  RH  040%=      5-min Rain = 0
KASU 200055Z 16006KT 19/05 A2987 RMK A01 T01920050  RH  040%=      5-min Rain = 0
KASU 200100Z 16005KT 19/05 A2987 RMK A01 T01890050  RH  041%=      5-min Rain = 0
KASU 200105Z 16005KT 18/05 A2987 RMK A01 T01840050  RH  042%=      5-min Rain = 0
KASU 200110Z 16006KT 18/05 A2987 RMK A01 T01820051  RH  043%=      5-min Rain = 0
KASU 200115Z 16006KT 18/05 A2987 RMK A01 T01840053  RH  043%=      5-min Rain = 0
KASU 200120Z 16006KT 18/05 A2987 RMK A01 T01840054  RH  043%=      5-min Rain = 0
KASU 200125Z 16006KT 19/05 A2988 RMK A01 T01850054  RH  043%=      5-min Rain = 0
KASU 200130Z 16006KT 19/06 A2988 RMK A01 T01850055  RH  043%=      5-min Rain = 0
KASU 200135Z 17006KT 18/06 A2988 RMK A01 T01840055  RH  044%=      5-min Rain = 0
KASU 200140Z 17006KT 18/06 A2988 RMK A01 T01840056  RH  044%=      5-min Rain = 0
KASU 200145Z 17005KT 18/06 A2988 RMK A01 T01830056  RH  044%=      5-min Rain = 0
KASU 200150Z 16005KT 18/06 A2988 RMK A01 T01800056  RH  045%=      5-min Rain = 0
KASU 200155Z 16005KT 18/06 A2988 RMK A01 T01750055  RH  046%=      5-min Rain = 0
KASU 200200Z 15005KT 17/06 A2988 RMK A01 T01720055  RH  047%=      5-min Rain = 0
KASU 200205Z 15006KT 17/06 A2988 RMK A01 T01700056  RH  048%=      5-min Rain = 0
KASU 200210Z 15005KT 17/06 A2988 RMK A01 T01700057  RH  048%=      5-min Rain = 0
KASU 200215Z 14005KT 17/06 A2988 RMK A01 T01680057  RH  049%=      5-min Rain = 0
KASU 200220Z 15006KT 17/06 A2988 RMK A01 T01710059  RH  049%=      5-min Rain = 0
KASU 200225Z 15006KT 18/06 A2988 RMK A01 T01790060  RH  047%=      5-min Rain = 0
KASU 200230Z 15007KT 18/06 A2988 RMK A01 T01760059  RH  047%=      5-min Rain = 0
KASU 200235Z 16007KT 18/06 A2988 RMK A01 T01800062  RH  047%=      5-min Rain = 0
KASU 200240Z 16007KT 18/06 A2989 RMK A01 T01820062  RH  046%=      5-min Rain = 0
KASU 200245Z 16007KT 18/06 A2989 RMK A01 T01810063  RH  047%=      5-min Rain = 0
KASU 200250Z 15007KT 18/06 A2989 RMK A01 T01790063  RH  048%=      5-min Rain = 0
KASU 200255Z 15006KT 18/06 A2989 RMK A01 T01790064  RH  048%=      5-min Rain = 0
KASU 200300Z 15006KT 18/06 A2989 RMK A01 T01780064  RH  048%=      5-min Rain = 0
KASU 200305Z 15007KT 18/06 A2989 RMK A01 T01760064  RH  049%=      5-min Rain = 0
KASU 200310Z 15006KT 17/06 A2989 RMK A01 T01730064  RH  050%=      5-min Rain = 0
KASU 200315Z 14006KT 17/06 A2989 RMK A01 T01720064  RH  050%=      5-min Rain = 0
KASU 200320Z 14006KT 17/07 A2989 RMK A01 T01720065  RH  051%=      5-min Rain = 0
KASU 200325Z 14006KT 17/07 A2989 RMK A01 T01740067  RH  051%=      5-min Rain = 0
KASU 200330Z 14006KT 18/07 A2989 RMK A01 T01750068  RH  051%=      5-min Rain = 0
KASU 200335Z 14005KT 17/07 A2989 RMK A01 T01730068  RH  051%=      5-min Rain = 0
KASU 200340Z 14005KT 17/07 A2989 RMK A01 T01710069  RH  052%=      5-min Rain = 0
KASU 200345Z 14004KT 17/07 A2989 RMK A01 T01710070  RH  053%=      5-min Rain = 0
KASU 200350Z 14004KT 17/07 A2989 RMK A01 T01690071  RH  054%=      5-min Rain = 0
KASU 200355Z 14004KT 17/07 A2989 RMK A01 T01690072  RH  054%=      5-min Rain = 0
KASU 200400Z 16004KT 17/07 A2989 RMK A01 T01680072  RH  055%=      5-min Rain = 0
KASU 200405Z 17004KT 17/07 A2989 RMK A01 T01680074  RH  055%=      5-min Rain = 0
KASU 200410Z 18003KT 17/08 A2989 RMK A01 T01690075  RH  055%=      5-min Rain = 0
KASU 200415Z 18005KT 17/08 A2989 RMK A01 T01700077  RH  056%=      5-min Rain = 0
KASU 200420Z 17005KT 17/08 A2989 RMK A01 T01730079  RH  055%=      5-min Rain = 0
KASU 200425Z 17006KT 17/08 A2989 RMK A01 T01740080  RH  055%=      5-min Rain = 0
KASU 200430Z 17006KT 17/08 A2989 RMK A01 T01730080  RH  056%=      5-min Rain = 0
KASU 200435Z 17006KT 17/08 A2989 RMK A01 T01720081  RH  056%=      5-min Rain = 0
KASU 200440Z 17007KT 17/08 A2989 RMK A01 T01720082  RH  057%=      5-min Rain = 0
KASU 200445Z 17006KT 17/08 A2989 RMK A01 T01710083  RH  058%=      5-min Rain = 0
KASU 200450Z 17007KT 17/08 A2989 RMK A01 T01710084  RH  058%=      5-min Rain = 0
KASU 200455Z 17007KT 17/09 A2989 RMK A01 T01720086  RH  058%=      5-min Rain = 0
KASU 200500Z 17008KT 17/09 A2989 RMK A01 T01720086  RH  059%=      5-min Rain = 0
KASU 200505Z 17008KT 17/09 A2989 RMK A01 T01710087  RH  059%=      5-min Rain = 0
KASU 200510Z 16008KT 17/09 A2989 RMK A01 T01720088  RH  059%=      5-min Rain = 0
KASU 200515Z 16007KT 17/09 A2989 RMK A01 T01710088  RH  060%=      5-min Rain = 0
KASU 200520Z 16007KT 17/09 A2989 RMK A01 T01690088  RH  060%=      5-min Rain = 0
KASU 200525Z 15006KT 17/09 A2988 RMK A01 T01680088  RH  061%=      5-min Rain = 0
KASU 200530Z 16005KT 17/09 A2988 RMK A01 T01650088  RH  062%=      5-min Rain = 0
KASU 200535Z 15006KT 17/09 A2988 RMK A01 T01650089  RH  063%=      5-min Rain = 0
KASU 200540Z 15006KT 16/09 A2988 RMK A01 T01640089  RH  063%=      5-min Rain = 0
KASU 200545Z 15005KT 16/09 A2988 RMK A01 T01640090  RH  064%=      5-min Rain = 0
KASU 200550Z 14005KT 16/09 A2988 RMK A01 T01630090  RH  064%=      5-min Rain = 0
KASU 200555Z 13004KT 16/09 A2988 RMK A01 T01610089  RH  064%=      5-min Rain = 0

Page generated in 0.0089 seconds.